sensor_id;sensor_type;location;lat;lon;timestamp;temperature;humidity
38784;DHT22;24531;45.502;12.238;2023-09-18T00:02:07;25.20;99.90
38784;DHT22;24531;45.502;12.238;2023-09-18T00:04:33;25.20;99.90
38784;DHT22;24531;45.502;12.238;2023-09-18T00:06:59;25.20;99.90
38784;DHT22;24531;45.502;12.238;2023-09-18T00:09:25;25.20;99.90
38784;DHT22;24531;45.502;12.238;2023-09-18T00:11:50;25.10;99.90
38784;DHT22;24531;45.502;12.238;2023-09-18T00:14:18;25.00;99.90
38784;DHT22;24531;45.502;12.238;2023-09-18T00:16:44;25.00;99.90
38784;DHT22;24531;45.502;12.238;2023-09-18T00:19:09;25.00;99.90
38784;DHT22;24531;45.502;12.238;2023-09-18T00:21:36;25.10;99.90
38784;DHT22;24531;45.502;12.238;2023-09-18T00:24:02;25.10;99.90
38784;DHT22;24531;45.502;12.238;2023-09-18T00:26:28;25.10;99.90
38784;DHT22;24531;45.502;12.238;2023-09-18T00:28:53;25.10;99.90
38784;DHT22;24531;45.502;12.238;2023-09-18T00:31:19;25.10;99.90
38784;DHT22;24531;45.502;12.238;2023-09-18T00:33:45;25.10;99.90
38784;DHT22;24531;45.502;12.238;2023-09-18T00:36:10;25.10;99.90
38784;DHT22;24531;45.502;12.238;2023-09-18T00:38:36;25.10;99.90
38784;DHT22;24531;45.502;12.238;2023-09-18T00:41:02;25.00;99.90
38784;DHT22;24531;45.502;12.238;2023-09-18T00:43:27;25.10;99.90
38784;DHT22;24531;45.502;12.238;2023-09-18T00:45:55;25.00;99.90
38784;DHT22;24531;45.502;12.238;2023-09-18T00:48:21;25.00;99.90
38784;DHT22;24531;45.502;12.238;2023-09-18T00:50:48;25.00;99.90
38784;DHT22;24531;45.502;12.238;2023-09-18T00:53:17;25.00;99.90
38784;DHT22;24531;45.502;12.238;2023-09-18T00:55:43;25.00;99.90
38784;DHT22;24531;45.502;12.238;2023-09-18T00:58:09;25.00;99.90
38784;DHT22;24531;45.502;12.238;2023-09-18T01:00:35;25.00;99.90
38784;DHT22;24531;45.502;12.238;2023-09-18T01:03:02;25.00;99.90
38784;DHT22;24531;45.502;12.238;2023-09-18T01:05:32;25.00;99.90
38784;DHT22;24531;45.502;12.238;2023-09-18T01:07:58;24.90;99.90
38784;DHT22;24531;45.502;12.238;2023-09-18T01:10:24;24.90;99.90
38784;DHT22;24531;45.502;12.238;2023-09-18T01:13:07;25.00;99.90
38784;DHT22;24531;45.502;12.238;2023-09-18T01:15:48;24.90;99.90
38784;DHT22;24531;45.502;12.238;2023-09-18T01:18:17;24.90;99.90
38784;DHT22;24531;45.502;12.238;2023-09-18T01:20:44;24.90;99.90
38784;DHT22;24531;45.502;12.238;2023-09-18T01:23:10;24.90;99.90
38784;DHT22;24531;45.502;12.238;2023-09-18T01:25:37;24.90;99.90
38784;DHT22;24531;45.502;12.238;2023-09-18T01:28:03;24.90;99.90
38784;DHT22;24531;45.502;12.238;2023-09-18T01:30:28;24.90;99.90
38784;DHT22;24531;45.502;12.238;2023-09-18T01:32:56;24.90;99.90
38784;DHT22;24531;45.502;12.238;2023-09-18T01:35:22;24.90;99.90
38784;DHT22;24531;45.502;12.238;2023-09-18T01:37:58;24.90;99.90
38784;DHT22;24531;45.502;12.238;2023-09-18T01:40:25;24.90;99.90
38784;DHT22;24531;45.502;12.238;2023-09-18T01:42:52;24.90;99.90
38784;DHT22;24531;45.502;12.238;2023-09-18T01:45:18;24.90;99.90
38784;DHT22;24531;45.502;12.238;2023-09-18T01:47:43;24.90;99.90
38784;DHT22;24531;45.502;12.238;2023-09-18T01:50:10;24.90;99.90
38784;DHT22;24531;45.502;12.238;2023-09-18T01:52:36;24.90;99.90
38784;DHT22;24531;45.502;12.238;2023-09-18T01:55:02;24.80;99.90
38784;DHT22;24531;45.502;12.238;2023-09-18T01:57:29;24.80;99.90
38784;DHT22;24531;45.502;12.238;2023-09-18T01:59:55;24.80;99.90
38784;DHT22;24531;45.502;12.238;2023-09-18T02:02:21;24.80;99.90
38784;DHT22;24531;45.502;12.238;2023-09-18T02:04:46;24.80;99.90
38784;DHT22;24531;45.502;12.238;2023-09-18T02:07:12;24.80;99.90
38784;DHT22;24531;45.502;12.238;2023-09-18T02:09:38;24.80;99.90
38784;DHT22;24531;45.502;12.238;2023-09-18T02:12:04;24.80;99.90
38784;DHT22;24531;45.502;12.238;2023-09-18T02:14:29;24.80;99.90
38784;DHT22;24531;45.502;12.238;2023-09-18T02:16:56;24.70;99.90
38784;DHT22;24531;45.502;12.238;2023-09-18T02:19:21;24.70;99.90
38784;DHT22;24531;45.502;12.238;2023-09-18T02:21:47;24.70;99.90
38784;DHT22;24531;45.502;12.238;2023-09-18T02:24:13;24.70;99.90
38784;DHT22;24531;45.502;12.238;2023-09-18T02:26:38;24.70;99.90
38784;DHT22;24531;45.502;12.238;2023-09-18T02:29:07;24.70;99.90
38784;DHT22;24531;45.502;12.238;2023-09-18T02:31:33;24.70;99.90
38784;DHT22;24531;45.502;12.238;2023-09-18T02:33:59;24.60;99.90
38784;DHT22;24531;45.502;12.238;2023-09-18T02:36:25;24.70;99.90
38784;DHT22;24531;45.502;12.238;2023-09-18T02:38:50;24.70;99.90
38784;DHT22;24531;45.502;12.238;2023-09-18T02:41:16;24.60;99.90
38784;DHT22;24531;45.502;12.238;2023-09-18T02:43:42;24.60;99.90
38784;DHT22;24531;45.502;12.238;2023-09-18T02:46:08;24.60;99.90
38784;DHT22;24531;45.502;12.238;2023-09-18T02:48:34;24.60;99.90
38784;DHT22;24531;45.502;12.238;2023-09-18T02:51:00;24.60;99.90
38784;DHT22;24531;45.502;12.238;2023-09-18T02:53:26;24.60;99.90
38784;DHT22;24531;45.502;12.238;2023-09-18T02:55:53;24.60;99.90
38784;DHT22;24531;45.502;12.238;2023-09-18T02:58:20;24.60;99.90
38784;DHT22;24531;45.502;12.238;2023-09-18T03:00:47;24.60;99.90
38784;DHT22;24531;45.502;12.238;2023-09-18T03:03:14;24.60;99.90
38784;DHT22;24531;45.502;12.238;2023-09-18T03:05:40;24.60;99.90
38784;DHT22;24531;45.502;12.238;2023-09-18T03:08:07;24.60;99.90
38784;DHT22;24531;45.502;12.238;2023-09-18T03:10:38;24.70;99.90
38784;DHT22;24531;45.502;12.238;2023-09-18T03:13:05;24.60;99.90
38784;DHT22;24531;45.502;12.238;2023-09-18T03:15:31;24.70;99.90
38784;DHT22;24531;45.502;12.238;2023-09-18T03:17:58;24.70;99.90
38784;DHT22;24531;45.502;12.238;2023-09-18T03:20:24;24.70;99.90
38784;DHT22;24531;45.502;12.238;2023-09-18T03:22:58;24.70;99.90
38784;DHT22;24531;45.502;12.238;2023-09-18T03:25:24;24.60;99.90
38784;DHT22;24531;45.502;12.238;2023-09-18T03:27:54;24.60;99.90
38784;DHT22;24531;45.502;12.238;2023-09-18T03:30:21;24.60;99.90
38784;DHT22;24531;45.502;12.238;2023-09-18T03:32:49;24.60;99.90
38784;DHT22;24531;45.502;12.238;2023-09-18T03:35:15;24.60;99.90
38784;DHT22;24531;45.502;12.238;2023-09-18T03:38:02;24.60;99.90
38784;DHT22;24531;45.502;12.238;2023-09-18T03:40:29;24.60;99.90
38784;DHT22;24531;45.502;12.238;2023-09-18T03:42:54;24.60;99.90
38784;DHT22;24531;45.502;12.238;2023-09-18T03:45:20;24.60;99.90
38784;DHT22;24531;45.502;12.238;2023-09-18T03:47:46;24.60;99.90
38784;DHT22;24531;45.502;12.238;2023-09-18T03:50:12;24.60;99.90
38784;DHT22;24531;45.502;12.238;2023-09-18T03:52:38;24.60;99.90
38784;DHT22;24531;45.502;12.238;2023-09-18T03:55:05;24.60;99.90
38784;DHT22;24531;45.502;12.238;2023-09-18T03:57:30;24.60;99.90
38784;DHT22;24531;45.502;12.238;2023-09-18T03:59:56;24.60;99.90
38784;DHT22;24531;45.502;12.238;2023-09-18T04:02:24;24.50;99.90
38784;DHT22;24531;45.502;12.238;2023-09-18T04:04:50;24.40;99.90
38784;DHT22;24531;45.502;12.238;2023-09-18T04:07:15;24.40;99.90
38784;DHT22;24531;45.502;12.238;2023-09-18T04:09:42;24.30;99.90
38784;DHT22;24531;45.502;12.238;2023-09-18T04:12:08;24.40;99.90
38784;DHT22;24531;45.502;12.238;2023-09-18T04:14:34;24.40;99.90
38784;DHT22;24531;45.502;12.238;2023-09-18T04:16:59;24.40;99.90
38784;DHT22;24531;45.502;12.238;2023-09-18T04:19:28;24.40;99.90
38784;DHT22;24531;45.502;12.238;2023-09-18T04:21:54;24.40;99.90
38784;DHT22;24531;45.502;12.238;2023-09-18T04:24:19;24.40;99.90
38784;DHT22;24531;45.502;12.238;2023-09-18T04:26:45;24.30;99.90
38784;DHT22;24531;45.502;12.238;2023-09-18T04:29:11;24.40;99.90
38784;DHT22;24531;45.502;12.238;2023-09-18T04:31:36;24.40;99.90
38784;DHT22;24531;45.502;12.238;2023-09-18T04:34:03;24.40;99.90
38784;DHT22;24531;45.502;12.238;2023-09-18T04:36:29;24.40;99.90
38784;DHT22;24531;45.502;12.238;2023-09-18T04:38:55;24.50;99.90
38784;DHT22;24531;45.502;12.238;2023-09-18T04:41:21;24.50;99.90
38784;DHT22;24531;45.502;12.238;2023-09-18T04:43:46;24.50;99.90
38784;DHT22;24531;45.502;12.238;2023-09-18T04:46:12;24.50;99.90
38784;DHT22;24531;45.502;12.238;2023-09-18T04:48:38;24.50;99.90
38784;DHT22;24531;45.502;12.238;2023-09-18T04:51:04;24.50;99.90
38784;DHT22;24531;45.502;12.238;2023-09-18T04:53:30;24.50;99.90
38784;DHT22;24531;45.502;12.238;2023-09-18T04:55:56;24.50;99.90
38784;DHT22;24531;45.502;12.238;2023-09-18T04:58:22;24.50;99.90
38784;DHT22;24531;45.502;12.238;2023-09-18T05:00:58;24.50;99.90
38784;DHT22;24531;45.502;12.238;2023-09-18T05:03:24;24.50;99.90
38784;DHT22;24531;45.502;12.238;2023-09-18T05:05:50;24.50;99.90
38784;DHT22;24531;45.502;12.238;2023-09-18T05:08:16;24.50;99.90
38784;DHT22;24531;45.502;12.238;2023-09-18T05:10:41;24.60;99.90
38784;DHT22;24531;45.502;12.238;2023-09-18T05:13:09;24.60;99.90
38784;DHT22;24531;45.502;12.238;2023-09-18T05:15:35;24.60;99.90
38784;DHT22;24531;45.502;12.238;2023-09-18T05:18:01;24.60;99.90
38784;DHT22;24531;45.502;12.238;2023-09-18T05:20:29;24.60;99.90
38784;DHT22;24531;45.502;12.238;2023-09-18T05:22:56;24.60;99.90
38784;DHT22;24531;45.502;12.238;2023-09-18T05:25:24;24.70;99.90
38784;DHT22;24531;45.502;12.238;2023-09-18T05:27:51;24.70;99.90
38784;DHT22;24531;45.502;12.238;2023-09-18T05:30:29;24.70;99.90
38784;DHT22;24531;45.502;12.238;2023-09-18T05:32:56;24.70;99.90
38784;DHT22;24531;45.502;12.238;2023-09-18T05:35:22;24.80;99.90
38784;DHT22;24531;45.502;12.238;2023-09-18T05:37:49;24.90;99.90
38784;DHT22;24531;45.502;12.238;2023-09-18T05:40:16;24.90;99.90
38784;DHT22;24531;45.502;12.238;2023-09-18T05:42:43;24.90;99.90
38784;DHT22;24531;45.502;12.238;2023-09-18T05:45:10;25.00;99.90
38784;DHT22;24531;45.502;12.238;2023-09-18T05:47:36;25.00;99.90
38784;DHT22;24531;45.502;12.238;2023-09-18T05:50:03;25.00;99.90
38784;DHT22;24531;45.502;12.238;2023-09-18T05:52:29;25.10;99.90
38784;DHT22;24531;45.502;12.238;2023-09-18T05:54:55;25.20;99.90
38784;DHT22;24531;45.502;12.238;2023-09-18T05:57:21;25.20;99.90
38784;DHT22;24531;45.502;12.238;2023-09-18T05:59:46;25.30;99.90
38784;DHT22;24531;45.502;12.238;2023-09-18T06:02:12;25.30;99.90
38784;DHT22;24531;45.502;12.238;2023-09-18T06:04:37;25.40;99.90
38784;DHT22;24531;45.502;12.238;2023-09-18T06:07:06;25.40;99.90
38784;DHT22;24531;45.502;12.238;2023-09-18T06:09:32;25.40;99.90
38784;DHT22;24531;45.502;12.238;2023-09-18T06:11:58;25.40;99.90
38784;DHT22;24531;45.502;12.238;2023-09-18T06:14:25;25.40;99.90
38784;DHT22;24531;45.502;12.238;2023-09-18T06:16:50;25.30;99.90
38784;DHT22;24531;45.502;12.238;2023-09-18T06:19:16;25.30;99.90
38784;DHT22;24531;45.502;12.238;2023-09-18T06:21:45;25.30;99.90
38784;DHT22;24531;45.502;12.238;2023-09-18T06:24:10;25.30;99.90
38784;DHT22;24531;45.502;12.238;2023-09-18T06:26:37;25.40;99.90
38784;DHT22;24531;45.502;12.238;2023-09-18T06:29:02;25.40;99.90
38784;DHT22;24531;45.502;12.238;2023-09-18T06:31:28;25.40;99.90
38784;DHT22;24531;45.502;12.238;2023-09-18T06:33:56;25.40;99.90
38784;DHT22;24531;45.502;12.238;2023-09-18T06:36:22;25.50;99.90
38784;DHT22;24531;45.502;12.238;2023-09-18T06:38:47;25.60;99.90
38784;DHT22;24531;45.502;12.238;2023-09-18T06:41:13;25.70;99.90
38784;DHT22;24531;45.502;12.238;2023-09-18T06:43:39;25.80;99.90
38784;DHT22;24531;45.502;12.238;2023-09-18T06:46:07;25.80;99.90
38784;DHT22;24531;45.502;12.238;2023-09-18T06:48:32;25.80;99.90
38784;DHT22;24531;45.502;12.238;2023-09-18T06:51:01;25.80;99.90
38784;DHT22;24531;45.502;12.238;2023-09-18T06:53:27;25.90;99.90
38784;DHT22;24531;45.502;12.238;2023-09-18T06:55:55;25.90;99.90
38784;DHT22;24531;45.502;12.238;2023-09-18T06:58:21;25.90;99.90
38784;DHT22;24531;45.502;12.238;2023-09-18T07:00:47;25.90;99.90
38784;DHT22;24531;45.502;12.238;2023-09-18T07:03:16;25.90;99.90
38784;DHT22;24531;45.502;12.238;2023-09-18T07:05:43;25.90;99.90
38784;DHT22;24531;45.502;12.238;2023-09-18T07:08:08;25.90;99.90
38784;DHT22;24531;45.502;12.238;2023-09-18T07:10:37;26.00;99.90
38784;DHT22;24531;45.502;12.238;2023-09-18T07:13:03;26.00;99.90
38784;DHT22;24531;45.502;12.238;2023-09-18T07:15:29;26.00;99.90
38784;DHT22;24531;45.502;12.238;2023-09-18T07:17:54;26.10;99.90
38784;DHT22;24531;45.502;12.238;2023-09-18T07:20:20;26.20;99.90
38784;DHT22;24531;45.502;12.238;2023-09-18T07:22:48;26.20;99.90
38784;DHT22;24531;45.502;12.238;2023-09-18T07:25:14;26.20;99.90
38784;DHT22;24531;45.502;12.238;2023-09-18T07:27:40;26.30;99.90
38784;DHT22;24531;45.502;12.238;2023-09-18T07:30:10;26.30;99.90
38784;DHT22;24531;45.502;12.238;2023-09-18T07:32:39;26.30;99.90
38784;DHT22;24531;45.502;12.238;2023-09-18T07:35:07;26.20;99.90
38784;DHT22;24531;45.502;12.238;2023-09-18T07:37:33;26.20;99.90
38784;DHT22;24531;45.502;12.238;2023-09-18T07:39:58;26.20;99.90
38784;DHT22;24531;45.502;12.238;2023-09-18T07:42:27;26.20;99.90
38784;DHT22;24531;45.502;12.238;2023-09-18T07:44:53;26.10;99.90
38784;DHT22;24531;45.502;12.238;2023-09-18T07:47:19;26.10;99.90
38784;DHT22;24531;45.502;12.238;2023-09-18T07:49:45;26.10;99.90
38784;DHT22;24531;45.502;12.238;2023-09-18T07:52:11;26.10;99.90
38784;DHT22;24531;45.502;12.238;2023-09-18T07:54:36;26.10;99.90
38784;DHT22;24531;45.502;12.238;2023-09-18T07:57:02;26.10;99.90
38784;DHT22;24531;45.502;12.238;2023-09-18T07:59:28;26.20;99.90
38784;DHT22;24531;45.502;12.238;2023-09-18T08:01:53;26.40;99.90
38784;DHT22;24531;45.502;12.238;2023-09-18T08:04:20;26.60;99.90
38784;DHT22;24531;45.502;12.238;2023-09-18T08:06:46;26.80;99.90
38784;DHT22;24531;45.502;12.238;2023-09-18T08:09:13;26.90;99.90
38784;DHT22;24531;45.502;12.238;2023-09-18T08:11:42;26.80;99.90
38784;DHT22;24531;45.502;12.238;2023-09-18T08:14:11;26.80;99.90
38784;DHT22;24531;45.502;12.238;2023-09-18T08:16:40;26.90;99.90
38784;DHT22;24531;45.502;12.238;2023-09-18T08:19:05;27.00;99.90
38784;DHT22;24531;45.502;12.238;2023-09-18T08:21:32;27.50;99.90
38784;DHT22;24531;45.502;12.238;2023-09-18T08:23:58;28.20;99.90
38784;DHT22;24531;45.502;12.238;2023-09-18T08:26:23;28.50;99.90
38784;DHT22;24531;45.502;12.238;2023-09-18T08:28:50;28.60;99.90
38784;DHT22;24531;45.502;12.238;2023-09-18T08:31:16;28.70;99.90
38784;DHT22;24531;45.502;12.238;2023-09-18T08:33:43;28.70;99.90
38784;DHT22;24531;45.502;12.238;2023-09-18T08:36:09;28.70;99.90
38784;DHT22;24531;45.502;12.238;2023-09-18T08:38:34;28.70;99.90
38784;DHT22;24531;45.502;12.238;2023-09-18T08:41:00;28.70;99.90
38784;DHT22;24531;45.502;12.238;2023-09-18T08:43:26;28.50;99.90
38784;DHT22;24531;45.502;12.238;2023-09-18T08:45:56;28.40;99.90
38784;DHT22;24531;45.502;12.238;2023-09-18T08:48:28;28.50;99.90
38784;DHT22;24531;45.502;12.238;2023-09-18T08:51:03;28.90;99.90
38784;DHT22;24531;45.502;12.238;2023-09-18T08:53:31;29.70;99.90
38784;DHT22;24531;45.502;12.238;2023-09-18T08:55:59;30.10;99.90
38784;DHT22;24531;45.502;12.238;2023-09-18T08:58:29;30.00;99.50
38784;DHT22;24531;45.502;12.238;2023-09-18T09:00:57;29.80;99.40
38784;DHT22;24531;45.502;12.238;2023-09-18T09:03:23;29.60;99.60
38784;DHT22;24531;45.502;12.238;2023-09-18T09:05:49;29.50;99.60
38784;DHT22;24531;45.502;12.238;2023-09-18T09:08:15;29.60;99.80
38784;DHT22;24531;45.502;12.238;2023-09-18T09:10:40;29.50;99.50
38784;DHT22;24531;45.502;12.238;2023-09-18T09:13:06;29.40;99.40
38784;DHT22;24531;45.502;12.238;2023-09-18T09:15:45;29.10;99.50
38784;DHT22;24531;45.502;12.238;2023-09-18T09:18:12;29.00;99.60
38784;DHT22;24531;45.502;12.238;2023-09-18T09:20:38;28.80;99.70
38784;DHT22;24531;45.502;12.238;2023-09-18T09:32:56;28.20;99.90
38784;DHT22;24531;45.502;12.238;2023-09-18T09:35:38;28.10;99.90
38784;DHT22;24531;45.502;12.238;2023-09-18T09:38:09;28.00;99.90
38784;DHT22;24531;45.502;12.238;2023-09-18T09:40:48;27.90;99.90
38784;DHT22;24531;45.502;12.238;2023-09-18T09:43:13;27.70;99.90
38784;DHT22;24531;45.502;12.238;2023-09-18T09:45:41;27.60;99.90
38784;DHT22;24531;45.502;12.238;2023-09-18T09:48:07;27.60;99.90
38784;DHT22;24531;45.502;12.238;2023-09-18T09:50:34;27.60;99.90
38784;DHT22;24531;45.502;12.238;2023-09-18T09:53:09;27.60;99.90
38784;DHT22;24531;45.502;12.238;2023-09-18T09:55:35;27.60;99.90
38784;DHT22;24531;45.502;12.238;2023-09-18T09:58:04;27.50;99.90
38784;DHT22;24531;45.502;12.238;2023-09-18T10:00:46;27.50;99.90
38784;DHT22;24531;45.502;12.238;2023-09-18T10:03:18;27.40;99.90
38784;DHT22;24531;45.502;12.238;2023-09-18T10:05:46;27.40;99.90
38784;DHT22;24531;45.502;12.238;2023-09-18T10:08:14;27.40;99.90
38784;DHT22;24531;45.502;12.238;2023-09-18T10:10:45;27.40;99.90
38784;DHT22;24531;45.502;12.238;2023-09-18T10:15:49;27.40;99.90
38784;DHT22;24531;45.502;12.238;2023-09-18T10:18:26;27.40;99.90
38784;DHT22;24531;45.502;12.238;2023-09-18T10:21:18;27.50;99.90
38784;DHT22;24531;45.502;12.238;2023-09-18T10:24:14;27.50;99.90
38784;DHT22;24531;45.502;12.238;2023-09-18T10:27:04;27.50;99.90
38784;DHT22;24531;45.502;12.238;2023-09-18T10:29:33;27.60;99.90
38784;DHT22;24531;45.502;12.238;2023-09-18T10:32:02;27.70;99.90
38784;DHT22;24531;45.502;12.238;2023-09-18T10:34:29;27.70;99.90
38784;DHT22;24531;45.502;12.238;2023-09-18T10:36:57;27.70;99.90
38784;DHT22;24531;45.502;12.238;2023-09-18T10:39:26;27.80;99.90
38784;DHT22;24531;45.502;12.238;2023-09-18T10:41:55;27.80;99.90
38784;DHT22;24531;45.502;12.238;2023-09-18T10:44:22;27.80;99.90
38784;DHT22;24531;45.502;12.238;2023-09-18T10:46:50;27.90;99.90
38784;DHT22;24531;45.502;12.238;2023-09-18T10:49:17;27.90;99.90
38784;DHT22;24531;45.502;12.238;2023-09-18T10:51:44;28.10;99.90
38784;DHT22;24531;45.502;12.238;2023-09-18T10:54:15;28.00;99.90
38784;DHT22;24531;45.502;12.238;2023-09-18T10:56:44;28.00;99.90
38784;DHT22;24531;45.502;12.238;2023-09-18T10:59:10;28.00;99.90
38784;DHT22;24531;45.502;12.238;2023-09-18T11:01:36;28.00;99.90
38784;DHT22;24531;45.502;12.238;2023-09-18T11:04:05;28.00;99.90
38784;DHT22;24531;45.502;12.238;2023-09-18T11:09:30;27.90;99.90
38784;DHT22;24531;45.502;12.238;2023-09-18T11:14:49;27.90;99.90
38784;DHT22;24531;45.502;12.238;2023-09-18T11:22:35;27.80;99.90
38784;DHT22;24531;45.502;12.238;2023-09-18T11:25:36;27.80;99.90
38784;DHT22;24531;45.502;12.238;2023-09-18T11:28:06;27.80;99.90
38784;DHT22;24531;45.502;12.238;2023-09-18T11:30:36;27.80;99.90
38784;DHT22;24531;45.502;12.238;2023-09-18T11:33:03;27.80;99.90
38784;DHT22;24531;45.502;12.238;2023-09-18T11:35:35;27.80;99.90
38784;DHT22;24531;45.502;12.238;2023-09-18T11:38:03;27.80;99.90
38784;DHT22;24531;45.502;12.238;2023-09-18T11:40:33;27.80;99.90
38784;DHT22;24531;45.502;12.238;2023-09-18T11:43:22;27.80;99.90
38784;DHT22;24531;45.502;12.238;2023-09-18T11:45:52;27.70;99.90
38784;DHT22;24531;45.502;12.238;2023-09-18T11:48:19;27.70;99.90
38784;DHT22;24531;45.502;12.238;2023-09-18T11:50:46;27.60;99.90
38784;DHT22;24531;45.502;12.238;2023-09-18T11:53:14;27.60;99.90
38784;DHT22;24531;45.502;12.238;2023-09-18T11:55:40;27.60;99.90
38784;DHT22;24531;45.502;12.238;2023-09-18T11:58:06;27.70;99.90
38784;DHT22;24531;45.502;12.238;2023-09-18T12:00:35;27.70;99.90
38784;DHT22;24531;45.502;12.238;2023-09-18T12:03:20;27.80;99.90
38784;DHT22;24531;45.502;12.238;2023-09-18T12:05:53;27.90;99.90
38784;DHT22;24531;45.502;12.238;2023-09-18T12:08:19;28.00;99.90
38784;DHT22;24531;45.502;12.238;2023-09-18T12:10:49;28.20;99.90
38784;DHT22;24531;45.502;12.238;2023-09-18T12:13:15;28.20;99.90
38784;DHT22;24531;45.502;12.238;2023-09-18T12:15:41;28.30;99.90
38784;DHT22;24531;45.502;12.238;2023-09-18T12:18:08;28.40;99.90
38784;DHT22;24531;45.502;12.238;2023-09-18T12:20:34;28.50;99.90
38784;DHT22;24531;45.502;12.238;2023-09-18T12:23:03;28.60;99.90
38784;DHT22;24531;45.502;12.238;2023-09-18T12:25:35;28.70;99.80
38784;DHT22;24531;45.502;12.238;2023-09-18T12:28:13;28.80;99.80
38784;DHT22;24531;45.502;12.238;2023-09-18T12:30:40;28.80;99.50
38784;DHT22;24531;45.502;12.238;2023-09-18T12:33:06;28.80;99.40
38784;DHT22;24531;45.502;12.238;2023-09-18T12:35:32;28.70;99.40
38784;DHT22;24531;45.502;12.238;2023-09-18T12:37:59;28.70;99.30
38784;DHT22;24531;45.502;12.238;2023-09-18T12:40:31;28.70;99.30
38784;DHT22;24531;45.502;12.238;2023-09-18T12:43:00;28.70;99.20
38784;DHT22;24531;45.502;12.238;2023-09-18T12:45:27;28.70;99.00
38784;DHT22;24531;45.502;12.238;2023-09-18T12:47:55;28.80;98.90
38784;DHT22;24531;45.502;12.238;2023-09-18T12:50:21;28.70;98.90
38784;DHT22;24531;45.502;12.238;2023-09-18T12:52:47;28.70;98.90
38784;DHT22;24531;45.502;12.238;2023-09-18T12:55:26;28.70;99.00
38784;DHT22;24531;45.502;12.238;2023-09-18T12:57:53;28.60;99.10
38784;DHT22;24531;45.502;12.238;2023-09-18T13:00:20;28.60;99.10
38784;DHT22;24531;45.502;12.238;2023-09-18T13:02:49;28.50;99.00
38784;DHT22;24531;45.502;12.238;2023-09-18T13:05:21;28.50;99.10
38784;DHT22;24531;45.502;12.238;2023-09-18T13:07:50;28.60;99.10
38784;DHT22;24531;45.502;12.238;2023-09-18T13:10:16;28.60;99.00
38784;DHT22;24531;45.502;12.238;2023-09-18T13:12:48;28.60;99.10
38784;DHT22;24531;45.502;12.238;2023-09-18T13:15:25;28.60;99.20
38784;DHT22;24531;45.502;12.238;2023-09-18T13:17:53;28.60;99.10
38784;DHT22;24531;45.502;12.238;2023-09-18T13:20:37;28.60;99.10
38784;DHT22;24531;45.502;12.238;2023-09-18T13:23:03;28.60;99.20
38784;DHT22;24531;45.502;12.238;2023-09-18T13:25:36;28.60;99.20
38784;DHT22;24531;45.502;12.238;2023-09-18T13:28:04;28.60;99.40
38784;DHT22;24531;45.502;12.238;2023-09-18T13:30:32;28.50;99.50
38784;DHT22;24531;45.502;12.238;2023-09-18T13:33:06;28.60;99.60
38784;DHT22;24531;45.502;12.238;2023-09-18T13:35:32;28.60;99.70
38784;DHT22;24531;45.502;12.238;2023-09-18T13:37:58;28.60;99.70
38784;DHT22;24531;45.502;12.238;2023-09-18T13:40:24;28.60;99.80
38784;DHT22;24531;45.502;12.238;2023-09-18T13:42:50;28.50;99.90
38784;DHT22;24531;45.502;12.238;2023-09-18T13:45:16;28.50;99.90
38784;DHT22;24531;45.502;12.238;2023-09-18T13:47:42;28.30;99.90
38784;DHT22;24531;45.502;12.238;2023-09-18T13:50:09;28.50;99.90
38784;DHT22;24531;45.502;12.238;2023-09-18T13:52:36;28.50;99.90
38784;DHT22;24531;45.502;12.238;2023-09-18T13:55:03;28.40;99.90
38784;DHT22;24531;45.502;12.238;2023-09-18T13:57:34;28.40;99.90
38784;DHT22;24531;45.502;12.238;2023-09-18T14:00:00;28.40;99.90
38784;DHT22;24531;45.502;12.238;2023-09-18T14:02:26;28.30;99.90
38784;DHT22;24531;45.502;12.238;2023-09-18T14:04:56;28.30;99.90
38784;DHT22;24531;45.502;12.238;2023-09-18T14:07:21;28.40;99.90
38784;DHT22;24531;45.502;12.238;2023-09-18T14:09:48;28.50;99.90
38784;DHT22;24531;45.502;12.238;2023-09-18T14:12:14;28.60;99.90
38784;DHT22;24531;45.502;12.238;2023-09-18T14:14:43;28.60;99.90
38784;DHT22;24531;45.502;12.238;2023-09-18T14:17:10;28.50;99.90
38784;DHT22;24531;45.502;12.238;2023-09-18T14:19:35;28.40;99.90
38784;DHT22;24531;45.502;12.238;2023-09-18T14:22:06;28.40;99.90
38784;DHT22;24531;45.502;12.238;2023-09-18T14:24:32;28.30;99.90
38784;DHT22;24531;45.502;12.238;2023-09-18T14:27:03;28.30;99.90
38784;DHT22;24531;45.502;12.238;2023-09-18T14:29:29;28.30;99.90
38784;DHT22;24531;45.502;12.238;2023-09-18T14:31:57;28.40;99.90
38784;DHT22;24531;45.502;12.238;2023-09-18T14:34:23;28.40;99.90
38784;DHT22;24531;45.502;12.238;2023-09-18T14:36:49;28.60;99.90
38784;DHT22;24531;45.502;12.238;2023-09-18T14:39:14;28.60;99.90
38784;DHT22;24531;45.502;12.238;2023-09-18T14:41:40;28.60;99.90
38784;DHT22;24531;45.502;12.238;2023-09-18T14:44:07;28.70;99.90
38784;DHT22;24531;45.502;12.238;2023-09-18T14:46:34;28.60;99.90
38784;DHT22;24531;45.502;12.238;2023-09-18T14:49:04;28.60;99.90
38784;DHT22;24531;45.502;12.238;2023-09-18T14:51:30;28.70;99.90
38784;DHT22;24531;45.502;12.238;2023-09-18T14:53:58;28.70;99.90
38784;DHT22;24531;45.502;12.238;2023-09-18T14:56:24;28.70;99.90
38784;DHT22;24531;45.502;12.238;2023-09-18T14:58:49;28.70;99.90
38784;DHT22;24531;45.502;12.238;2023-09-18T15:01:20;28.70;99.90
38784;DHT22;24531;45.502;12.238;2023-09-18T15:03:46;28.60;99.90
38784;DHT22;24531;45.502;12.238;2023-09-18T15:06:12;28.60;99.90
38784;DHT22;24531;45.502;12.238;2023-09-18T15:08:38;28.60;99.90
38784;DHT22;24531;45.502;12.238;2023-09-18T15:11:03;28.60;99.90
38784;DHT22;24531;45.502;12.238;2023-09-18T15:13:30;28.50;99.90
38784;DHT22;24531;45.502;12.238;2023-09-18T15:15:57;28.40;99.90
38784;DHT22;24531;45.502;12.238;2023-09-18T15:18:22;28.40;99.90
38784;DHT22;24531;45.502;12.238;2023-09-18T15:20:48;28.40;99.90
38784;DHT22;24531;45.502;12.238;2023-09-18T15:23:28;28.30;99.90
38784;DHT22;24531;45.502;12.238;2023-09-18T15:25:55;28.30;99.90
38784;DHT22;24531;45.502;12.238;2023-09-18T15:28:24;28.30;99.90
38784;DHT22;24531;45.502;12.238;2023-09-18T15:30:52;28.20;99.90
38784;DHT22;24531;45.502;12.238;2023-09-18T15:33:21;28.30;99.90
38784;DHT22;24531;45.502;12.238;2023-09-18T15:35:48;28.30;99.90
38784;DHT22;24531;45.502;12.238;2023-09-18T15:38:14;28.30;99.90
38784;DHT22;24531;45.502;12.238;2023-09-18T15:40:40;28.30;99.90
38784;DHT22;24531;45.502;12.238;2023-09-18T15:43:06;28.30;99.90